Terminal Aerodrome Forecast
Issued by NWS Sterling, VA

Home | Current Version | Previous Version | Text Only | Print | Product List | Glossary On
Versions: 1 2 3 4 5 6 7 8 9 10 11 12 13 14 15 16 17 18 19 20 21 22 23 24 25 26 27 28
000
FTUS41 KLWX 051456 AAB
TAFBWI
TAF AMD
KBWI 051456Z 0515/0618 35010G18KT 1/2SM SN OVC004
     FM052100 35008G16KT 3SM -SN OVC015
     FM060000 32007KT P6SM OVC025
     FM060200 33004KT P6SM SCT040
     FM060600 35005KT P6SM FEW250=

USA.gov is the U.S. government's official web portal to all federal, state and local government web resources and services.